sensor_id;sensor_type;location;lat;lon;timestamp;pressure;altitude;pressure_sealevel;temperature;humidity
23281;BME280;11809;56.390;-3.266;2023-08-21T00:01:47;101241.25;;;19.96;61.70
23281;BME280;11809;56.390;-3.266;2023-08-21T00:04:14;101243.06;;;19.96;61.69
23281;BME280;11809;56.390;-3.266;2023-08-21T00:06:41;101244.97;;;19.94;61.96
23281;BME280;11809;56.390;-3.266;2023-08-21T00:09:08;101238.78;;;19.93;61.86
23281;BME280;11809;56.390;-3.266;2023-08-21T00:11:35;101246.06;;;19.91;61.97
23281;BME280;11809;56.390;-3.266;2023-08-21T00:14:02;101257.78;;;19.89;62.26
23281;BME280;11809;56.390;-3.266;2023-08-21T00:16:29;101259.38;;;19.91;62.02
23281;BME280;11809;56.390;-3.266;2023-08-21T00:18:57;101263.03;;;19.90;61.76
23281;BME280;11809;56.390;-3.266;2023-08-21T00:21:24;101254.25;;;19.88;61.83
23281;BME280;11809;56.390;-3.266;2023-08-21T00:23:51;101259.59;;;19.88;62.19
23281;BME280;11809;56.390;-3.266;2023-08-21T00:26:18;101262.25;;;19.88;62.35
23281;BME280;11809;56.390;-3.266;2023-08-21T00:28:45;101264.94;;;19.88;62.50
23281;BME280;11809;56.390;-3.266;2023-08-21T00:31:12;101267.59;;;19.88;62.50
23281;BME280;11809;56.390;-3.266;2023-08-21T00:33:40;101269.53;;;19.86;62.92
23281;BME280;11809;56.390;-3.266;2023-08-21T00:36:07;101250.72;;;19.88;63.06
23281;BME280;11809;56.390;-3.266;2023-08-21T00:38:34;101240.31;;;19.85;63.06
23281;BME280;11809;56.390;-3.266;2023-08-21T00:41:01;101225.38;;;19.82;63.13
23281;BME280;11809;56.390;-3.266;2023-08-21T00:43:28;101222.78;;;19.81;63.31
23281;BME280;11809;56.390;-3.266;2023-08-21T00:45:55;101226.31;;;19.81;63.14
23281;BME280;11809;56.390;-3.266;2023-08-21T00:48:22;101217.38;;;19.82;63.32
23281;BME280;11809;56.390;-3.266;2023-08-21T00:50:50;101219.25;;;19.80;62.99
23281;BME280;11809;56.390;-3.266;2023-08-21T00:53:17;101225.44;;;19.81;63.04
23281;BME280;11809;56.390;-3.266;2023-08-21T00:55:45;101224.50;;;19.82;62.79
23281;BME280;11809;56.390;-3.266;2023-08-21T00:58:12;101224.59;;;19.80;63.03
23281;BME280;11809;56.390;-3.266;2023-08-21T01:00:41;101228.25;;;19.79;62.83
23281;BME280;11809;56.390;-3.266;2023-08-21T01:03:08;101238.13;;;19.77;62.84
23281;BME280;11809;56.390;-3.266;2023-08-21T01:05:36;101230.03;;;19.79;62.79
23281;BME280;11809;56.390;-3.266;2023-08-21T01:08:06;101240.72;;;19.79;62.81
23281;BME280;11809;56.390;-3.266;2023-08-21T01:10:50;101232.81;;;19.77;63.01
23281;BME280;11809;56.390;-3.266;2023-08-21T01:13:23;101223.84;;;19.78;62.93
23281;BME280;11809;56.390;-3.266;2023-08-21T01:15:54;101220.25;;;19.79;62.80
23281;BME280;11809;56.390;-3.266;2023-08-21T01:18:24;101223.84;;;19.78;62.81
23281;BME280;11809;56.390;-3.266;2023-08-21T01:20:54;101222.13;;;19.77;62.56
23281;BME280;11809;56.390;-3.266;2023-08-21T01:25:55;101213.41;;;19.75;62.63
23281;BME280;11809;56.390;-3.266;2023-08-21T01:28:23;101215.31;;;19.73;62.64
23281;BME280;11809;56.390;-3.266;2023-08-21T01:30:51;101226.19;;;19.70;62.91
23281;BME280;11809;56.390;-3.266;2023-08-21T01:33:21;101220.13;;;19.68;62.86
23281;BME280;11809;56.390;-3.266;2023-08-21T01:35:50;101224.47;;;19.69;62.86
23281;BME280;11809;56.390;-3.266;2023-08-21T01:38:18;101215.84;;;19.66;62.91
23281;BME280;11809;56.390;-3.266;2023-08-21T01:40:47;101224.47;;;19.69;63.15
23281;BME280;11809;56.390;-3.266;2023-08-21T01:43:13;101218.41;;;19.67;63.00
23281;BME280;11809;56.390;-3.266;2023-08-21T01:45:40;101223.66;;;19.69;63.01
23281;BME280;11809;56.390;-3.266;2023-08-21T01:48:08;101224.72;;;19.66;62.88
23281;BME280;11809;56.390;-3.266;2023-08-21T01:50:35;101220.31;;;19.65;63.07
23281;BME280;11809;56.390;-3.266;2023-08-21T01:53:02;101224.19;;;19.61;63.29
23281;BME280;11809;56.390;-3.266;2023-08-21T01:55:29;101229.28;;;19.64;63.21
23281;BME280;11809;56.390;-3.266;2023-08-21T01:57:56;101227.59;;;19.63;63.15
23281;BME280;11809;56.390;-3.266;2023-08-21T02:00:23;101218.84;;;19.61;63.17
23281;BME280;11809;56.390;-3.266;2023-08-21T02:02:50;101231.94;;;19.64;63.09
23281;BME280;11809;56.390;-3.266;2023-08-21T02:05:17;101227.66;;;19.62;63.04
23281;BME280;11809;56.390;-3.266;2023-08-21T02:07:44;101214.53;;;19.59;63.35
23281;BME280;11809;56.390;-3.266;2023-08-21T02:10:12;101215.59;;;19.56;63.67
23281;BME280;11809;56.390;-3.266;2023-08-21T02:12:40;101224.25;;;19.60;63.92
23281;BME280;11809;56.390;-3.266;2023-08-21T02:15:08;101227.06;;;19.58;64.18
23281;BME280;11809;56.390;-3.266;2023-08-21T02:17:36;101223.59;;;19.56;64.31
23281;BME280;11809;56.390;-3.266;2023-08-21T02:20:03;101218.28;;;19.56;63.82
23281;BME280;11809;56.390;-3.266;2023-08-21T02:22:30;101211.13;;;19.57;64.04
23281;BME280;11809;56.390;-3.266;2023-08-21T02:24:57;101218.28;;;19.56;64.13
23281;BME280;11809;56.390;-3.266;2023-08-21T02:27:25;101220.75;;;19.59;64.12
23281;BME280;11809;56.390;-3.266;2023-08-21T02:29:52;101213.81;;;19.57;64.01
23281;BME280;11809;56.390;-3.266;2023-08-21T02:32:19;101217.53;;;19.54;64.03
23281;BME280;11809;56.390;-3.266;2023-08-21T02:34:46;101218.50;;;19.53;64.30
23281;BME280;11809;56.390;-3.266;2023-08-21T02:37:14;101216.91;;;19.51;64.49
23281;BME280;11809;56.390;-3.266;2023-08-21T02:39:40;101210.81;;;19.49;64.33
23281;BME280;11809;56.390;-3.266;2023-08-21T02:42:07;101212.53;;;19.50;64.24
23281;BME280;11809;56.390;-3.266;2023-08-21T02:44:34;101208.06;;;19.50;64.34
23281;BME280;11809;56.390;-3.266;2023-08-21T02:47:01;101206.44;;;19.48;64.38
23281;BME280;11809;56.390;-3.266;2023-08-21T02:49:28;101210.81;;;19.49;64.21
23281;BME280;11809;56.390;-3.266;2023-08-21T02:51:55;101209.94;;;19.48;64.15
23281;BME280;11809;56.390;-3.266;2023-08-21T02:54:22;101212.53;;;19.50;64.55
23281;BME280;11809;56.390;-3.266;2023-08-21T02:56:49;101214.44;;;19.48;64.30
23281;BME280;11809;56.390;-3.266;2023-08-21T02:59:16;101213.59;;;19.47;64.50
23281;BME280;11809;56.390;-3.266;2023-08-21T03:01:43;101209.00;;;19.49;64.51
23281;BME280;11809;56.390;-3.266;2023-08-21T03:04:10;101209.94;;;19.48;64.57
23281;BME280;11809;56.390;-3.266;2023-08-21T03:06:37;101206.34;;;19.49;64.84
23281;BME280;11809;56.390;-3.266;2023-08-21T03:09:04;101217.00;;;19.49;64.76
23281;BME280;11809;56.390;-3.266;2023-08-21T03:11:31;101204.84;;;19.45;64.70
23281;BME280;11809;56.390;-3.266;2023-08-21T03:13:58;101208.25;;;19.47;64.84
23281;BME280;11809;56.390;-3.266;2023-08-21T03:16:25;101210.19;;;19.45;64.75
23281;BME280;11809;56.390;-3.266;2023-08-21T03:19:00;101203.88;;;19.46;65.00
23281;BME280;11809;56.390;-3.266;2023-08-21T03:21:27;101211.88;;;19.46;64.84
23281;BME280;11809;56.390;-3.266;2023-08-21T03:23:56;101206.66;;;19.45;64.89
23281;BME280;11809;56.390;-3.266;2023-08-21T03:26:25;101203.13;;;19.44;65.13
23281;BME280;11809;56.390;-3.266;2023-08-21T03:28:52;101199.53;;;19.45;65.17
23281;BME280;11809;56.390;-3.266;2023-08-21T03:31:19;101203.13;;;19.44;65.01
23281;BME280;11809;56.390;-3.266;2023-08-21T03:33:46;101203.34;;;19.41;65.04
23281;BME280;11809;56.390;-3.266;2023-08-21T03:36:15;101211.44;;;19.40;65.06
23281;BME280;11809;56.390;-3.266;2023-08-21T03:38:42;101198.94;;;19.40;64.70
23281;BME280;11809;56.390;-3.266;2023-08-21T03:41:09;101196.28;;;19.40;64.92
23281;BME280;11809;56.390;-3.266;2023-08-21T03:43:36;101198.13;;;19.40;65.03
23281;BME280;11809;56.390;-3.266;2023-08-21T03:46:03;101199.81;;;19.41;64.83
23281;BME280;11809;56.390;-3.266;2023-08-21T03:48:30;101189.25;;;19.39;64.82
23281;BME280;11809;56.390;-3.266;2023-08-21T03:50:57;101190.94;;;19.40;64.70
23281;BME280;11809;56.390;-3.266;2023-08-21T03:53:24;101180.19;;;19.42;64.98
23281;BME280;11809;56.390;-3.266;2023-08-21T03:55:51;101186.41;;;19.42;64.76
23281;BME280;11809;56.390;-3.266;2023-08-21T03:58:18;101182.00;;;19.41;64.81
23281;BME280;11809;56.390;-3.266;2023-08-21T04:00:45;101184.59;;;19.43;64.46
23281;BME280;11809;56.390;-3.266;2023-08-21T04:03:12;101186.28;;;19.44;64.47
23281;BME280;11809;56.390;-3.266;2023-08-21T04:05:39;101192.47;;;19.44;64.38
23281;BME280;11809;56.390;-3.266;2023-08-21T04:08:06;101181.06;;;19.42;64.14
23281;BME280;11809;56.390;-3.266;2023-08-21T04:10:34;101182.97;;;19.40;64.33
23281;BME280;11809;56.390;-3.266;2023-08-21T04:13:02;101183.06;;;19.39;64.57
23281;BME280;11809;56.390;-3.266;2023-08-21T04:15:30;101177.63;;;19.40;64.15
23281;BME280;11809;56.390;-3.266;2023-08-21T04:17:57;101175.06;;;19.39;64.43
23281;BME280;11809;56.390;-3.266;2023-08-21T04:20:24;101183.94;;;19.39;64.26
23281;BME280;11809;56.390;-3.266;2023-08-21T04:22:52;101174.97;;;19.40;64.60
23281;BME280;11809;56.390;-3.266;2023-08-21T04:25:19;101176.69;;;19.41;64.22
23281;BME280;11809;56.390;-3.266;2023-08-21T04:27:46;101175.81;;;19.41;64.15
23281;BME280;11809;56.390;-3.266;2023-08-21T04:30:13;101181.81;;;19.44;64.51
23281;BME280;11809;56.390;-3.266;2023-08-21T04:32:40;101184.88;;;19.38;64.18
23281;BME280;11809;56.390;-3.266;2023-08-21T04:35:08;101183.06;;;19.39;64.35
23281;BME280;11809;56.390;-3.266;2023-08-21T04:37:37;101166.41;;;19.35;64.50
23281;BME280;11809;56.390;-3.266;2023-08-21T04:40:05;101167.16;;;19.37;64.97
23281;BME280;11809;56.390;-3.266;2023-08-21T04:42:33;101169.06;;;19.35;64.91
23281;BME280;11809;56.390;-3.266;2023-08-21T04:45:00;101158.50;;;19.33;65.00
23281;BME280;11809;56.390;-3.266;2023-08-21T04:47:29;101159.47;;;19.32;65.09
23281;BME280;11809;56.390;-3.266;2023-08-21T04:49:56;101155.97;;;19.32;65.04
23281;BME280;11809;56.390;-3.266;2023-08-21T04:52:24;101155.97;;;19.32;65.11
23281;BME280;11809;56.390;-3.266;2023-08-21T04:54:52;101167.47;;;19.32;65.07
23281;BME280;11809;56.390;-3.266;2023-08-21T04:57:20;101171.97;;;19.32;65.36
23281;BME280;11809;56.390;-3.266;2023-08-21T04:59:49;101171.09;;;19.31;65.29
23281;BME280;11809;56.390;-3.266;2023-08-21T05:02:16;101170.13;;;19.32;65.07
23281;BME280;11809;56.390;-3.266;2023-08-21T05:04:43;101163.09;;;19.31;65.49
23281;BME280;11809;56.390;-3.266;2023-08-21T05:07:10;101157.84;;;19.30;65.40
23281;BME280;11809;56.390;-3.266;2023-08-21T05:09:37;101166.72;;;19.30;65.38
23281;BME280;11809;56.390;-3.266;2023-08-21T05:12:05;101159.66;;;19.29;65.33
23281;BME280;11809;56.390;-3.266;2023-08-21T05:14:32;101162.13;;;19.32;65.20
23281;BME280;11809;56.390;-3.266;2023-08-21T05:16:59;101153.63;;;19.40;65.81
23281;BME280;11809;56.390;-3.266;2023-08-21T05:19:26;101164.88;;;19.45;65.96
23281;BME280;11809;56.390;-3.266;2023-08-21T05:21:54;101167.09;;;19.51;66.70
23281;BME280;11809;56.390;-3.266;2023-08-21T05:24:21;101156.22;;;19.54;66.76
23281;BME280;11809;56.390;-3.266;2023-08-21T05:26:48;101151.00;;;19.53;65.97
23281;BME280;11809;56.390;-3.266;2023-08-21T05:29:15;101168.69;;;19.54;65.47
23281;BME280;11809;56.390;-3.266;2023-08-21T05:31:42;101175.00;;;19.53;64.74
23281;BME280;11809;56.390;-3.266;2023-08-21T05:34:09;101176.81;;;19.52;64.75
23281;BME280;11809;56.390;-3.266;2023-08-21T05:36:36;101167.94;;;19.52;64.19
23281;BME280;11809;56.390;-3.266;2023-08-21T05:39:05;101176.69;;;19.54;64.05
23281;BME280;11809;56.390;-3.266;2023-08-21T05:41:33;101163.59;;;19.51;63.93
23281;BME280;11809;56.390;-3.266;2023-08-21T05:44:00;101171.34;;;19.54;64.10
23281;BME280;11809;56.390;-3.266;2023-08-21T05:46:27;101185.13;;;19.60;64.51
23281;BME280;11809;56.390;-3.266;2023-08-21T05:48:54;101182.47;;;19.60;64.16
23281;BME280;11809;56.390;-3.266;2023-08-21T05:51:21;101170.00;;;19.61;64.16
23281;BME280;11809;56.390;-3.266;2023-08-21T05:53:48;101178.84;;;19.61;63.86
23281;BME280;11809;56.390;-3.266;2023-08-21T05:56:15;101163.69;;;19.62;63.59
23281;BME280;11809;56.390;-3.266;2023-08-21T05:58:42;101163.59;;;19.63;63.39
23281;BME280;11809;56.390;-3.266;2023-08-21T06:01:09;101166.78;;;19.68;64.75
23281;BME280;11809;56.390;-3.266;2023-08-21T06:03:36;101168.47;;;19.69;64.39
23281;BME280;11809;56.390;-3.266;2023-08-21T06:06:04;101180.13;;;19.68;64.34
23281;BME280;11809;56.390;-3.266;2023-08-21T06:08:31;101180.31;;;19.65;64.27
23281;BME280;11809;56.390;-3.266;2023-08-21T06:10:58;101174.03;;;19.66;64.12
23281;BME280;11809;56.390;-3.266;2023-08-21T06:13:26;101171.59;;;19.63;64.14
23281;BME280;11809;56.390;-3.266;2023-08-21T06:15:54;101171.59;;;19.63;64.02
23281;BME280;11809;56.390;-3.266;2023-08-21T06:18:21;101171.59;;;19.63;64.22
23281;BME280;11809;56.390;-3.266;2023-08-21T06:20:49;101177.88;;;19.62;64.10
23281;BME280;11809;56.390;-3.266;2023-08-21T06:23:20;101177.53;;;19.67;64.25
23281;BME280;11809;56.390;-3.266;2023-08-21T06:25:48;101183.13;;;19.64;64.30
23281;BME280;11809;56.390;-3.266;2023-08-21T06:28:16;101187.25;;;19.68;64.27
23281;BME280;11809;56.390;-3.266;2023-08-21T06:30:44;101173.72;;;19.71;65.02
23281;BME280;11809;56.390;-3.266;2023-08-21T06:33:11;101176.06;;;19.75;65.36
23281;BME280;11809;56.390;-3.266;2023-08-21T06:35:38;101169.13;;;19.73;64.79
23281;BME280;11809;56.390;-3.266;2023-08-21T06:38:05;101177.03;;;19.74;64.85
23281;BME280;11809;56.390;-3.266;2023-08-21T06:40:34;101177.34;;;19.70;64.55
23281;BME280;11809;56.390;-3.266;2023-08-21T06:43:01;101170.31;;;19.69;64.68
23281;BME280;11809;56.390;-3.266;2023-08-21T06:45:28;101178.41;;;19.67;64.51
23281;BME280;11809;56.390;-3.266;2023-08-21T06:47:57;101177.66;;;19.65;64.50
23281;BME280;11809;56.390;-3.266;2023-08-21T06:50:25;101172.75;;;19.59;64.35
23281;BME280;11809;56.390;-3.266;2023-08-21T06:52:52;101165.59;;;19.60;64.62
23281;BME280;11809;56.390;-3.266;2023-08-21T06:55:19;101170.06;;;19.59;64.57
23281;BME280;11809;56.390;-3.266;2023-08-21T06:57:46;101170.06;;;19.59;64.70
23281;BME280;11809;56.390;-3.266;2023-08-21T07:00:13;101172.22;;;19.54;64.85
23281;BME280;11809;56.390;-3.266;2023-08-21T07:02:41;101180.94;;;19.56;64.99
23281;BME280;11809;56.390;-3.266;2023-08-21T07:05:08;101183.72;;;19.55;64.62
23281;BME280;11809;56.390;-3.266;2023-08-21T07:07:38;101177.47;;;19.56;64.95
23281;BME280;11809;56.390;-3.266;2023-08-21T07:10:05;101181.94;;;19.55;65.00
23281;BME280;11809;56.390;-3.266;2023-08-21T07:12:32;101188.22;;;19.54;65.08
23281;BME280;11809;56.390;-3.266;2023-08-21T07:14:59;101188.13;;;19.56;65.21
23281;BME280;11809;56.390;-3.266;2023-08-21T07:17:26;101186.53;;;19.53;65.29
23281;BME280;11809;56.390;-3.266;2023-08-21T07:19:53;101189.06;;;19.55;64.92
23281;BME280;11809;56.390;-3.266;2023-08-21T07:22:21;101191.84;;;19.53;65.01
23281;BME280;11809;56.390;-3.266;2023-08-21T07:24:48;101193.53;;;19.54;65.34
23281;BME280;11809;56.390;-3.266;2023-08-21T07:27:15;101196.13;;;19.56;65.33
23281;BME280;11809;56.390;-3.266;2023-08-21T07:29:43;101200.59;;;19.55;65.12
23281;BME280;11809;56.390;-3.266;2023-08-21T07:32:10;101206.88;;;19.54;65.35
23281;BME280;11809;56.390;-3.266;2023-08-21T07:34:37;101212.19;;;19.54;65.27
23281;BME280;11809;56.390;-3.266;2023-08-21T07:37:04;101208.69;;;19.54;65.18
23281;BME280;11809;56.390;-3.266;2023-08-21T07:39:34;101206.00;;;19.54;65.27
23281;BME280;11809;56.390;-3.266;2023-08-21T07:42:01;101204.19;;;19.54;65.06
23281;BME280;11809;56.390;-3.266;2023-08-21T07:44:28;101192.91;;;19.51;64.85
23281;BME280;11809;56.390;-3.266;2023-08-21T07:46:55;101192.69;;;19.54;65.15
23281;BME280;11809;56.390;-3.266;2023-08-21T07:49:22;101191.94;;;19.52;65.27
23281;BME280;11809;56.390;-3.266;2023-08-21T07:51:49;101183.09;;;19.51;65.39
23281;BME280;11809;56.390;-3.266;2023-08-21T07:54:16;101178.53;;;19.53;65.36
23281;BME280;11809;56.390;-3.266;2023-08-21T07:56:44;101180.22;;;19.54;65.73
23281;BME280;11809;56.390;-3.266;2023-08-21T07:59:11;101166.88;;;19.54;65.40
23281;BME280;11809;56.390;-3.266;2023-08-21T08:01:38;101166.66;;;19.57;65.30
23281;BME280;11809;56.390;-3.266;2023-08-21T08:04:06;101165.28;;;19.64;65.31
23281;BME280;11809;56.390;-3.266;2023-08-21T08:06:33;101165.06;;;19.67;65.25
23281;BME280;11809;56.390;-3.266;2023-08-21T08:09:00;101154.41;;;19.67;65.40
23281;BME280;11809;56.390;-3.266;2023-08-21T08:11:27;101141.81;;;19.69;65.55
23281;BME280;11809;56.390;-3.266;2023-08-21T08:13:55;101154.41;;;19.67;65.63
23281;BME280;11809;56.390;-3.266;2023-08-21T08:16:23;101157.06;;;19.67;65.70
23281;BME280;11809;56.390;-3.266;2023-08-21T08:18:50;101143.72;;;19.67;65.64
23281;BME280;11809;56.390;-3.266;2023-08-21T08:21:17;101146.41;;;19.67;65.72
23281;BME280;11809;56.390;-3.266;2023-08-21T08:23:45;101145.44;;;19.68;65.61
23281;BME280;11809;56.390;-3.266;2023-08-21T08:26:12;101152.38;;;19.71;65.64
23281;BME280;11809;56.390;-3.266;2023-08-21T08:28:39;101135.53;;;19.70;65.80
23281;BME280;11809;56.390;-3.266;2023-08-21T08:31:06;101137.75;;;19.76;65.39
23281;BME280;11809;56.390;-3.266;2023-08-21T08:33:33;101132.22;;;19.79;65.68
23281;BME280;11809;56.390;-3.266;2023-08-21T08:36:01;101127.84;;;19.78;66.00
23281;BME280;11809;56.390;-3.266;2023-08-21T08:38:28;101137.22;;;19.84;65.51
23281;BME280;11809;56.390;-3.266;2023-08-21T08:40:56;101134.69;;;19.82;65.44
23281;BME280;11809;56.390;-3.266;2023-08-21T08:43:25;101137.22;;;19.84;65.66
23281;BME280;11809;56.390;-3.266;2023-08-21T08:45:56;101129.66;;;19.90;64.85
23281;BME280;11809;56.390;-3.266;2023-08-21T08:48:25;101126.66;;;19.95;65.07
23281;BME280;11809;56.390;-3.266;2023-08-21T08:50:53;101122.56;;;20.02;65.05
23281;BME280;11809;56.390;-3.266;2023-08-21T08:53:24;101123.56;;;20.01;64.90
23281;BME280;11809;56.390;-3.266;2023-08-21T08:55:52;101123.13;;;19.94;65.00
23281;BME280;11809;56.390;-3.266;2023-08-21T08:58:19;101130.19;;;19.95;65.14
23281;BME280;11809;56.390;-3.266;2023-08-21T09:00:47;101124.84;;;19.95;65.04
23281;BME280;11809;56.390;-3.266;2023-08-21T09:03:14;101118.72;;;19.93;64.81
23281;BME280;11809;56.390;-3.266;2023-08-21T09:05:42;101121.41;;;19.93;64.81
23281;BME280;11809;56.390;-3.266;2023-08-21T09:08:11;101118.72;;;19.93;64.63
23281;BME280;11809;56.390;-3.266;2023-08-21T09:10:39;101118.00;;;19.91;64.67
23281;BME280;11809;56.390;-3.266;2023-08-21T09:13:15;101122.47;;;19.91;64.62
23281;BME280;11809;56.390;-3.266;2023-08-21T09:15:45;101119.94;;;19.89;64.64
23281;BME280;11809;56.390;-3.266;2023-08-21T09:18:14;101116.31;;;19.90;64.33
23281;BME280;11809;56.390;-3.266;2023-08-21T09:20:42;101110.97;;;19.90;64.41
23281;BME280;11809;56.390;-3.266;2023-08-21T09:23:14;101105.72;;;19.89;64.76
23281;BME280;11809;56.390;-3.266;2023-08-21T09:25:44;101114.69;;;19.88;64.35
23281;BME280;11809;56.390;-3.266;2023-08-21T09:28:11;101105.00;;;19.87;64.54
23281;BME280;11809;56.390;-3.266;2023-08-21T09:30:46;101107.53;;;19.88;64.28
23281;BME280;11809;56.390;-3.266;2023-08-21T09:33:17;101117.47;;;19.86;64.33
23281;BME280;11809;56.390;-3.266;2023-08-21T09:35:45;101120.16;;;19.86;64.27
23281;BME280;11809;56.390;-3.266;2023-08-21T09:38:12;101124.63;;;19.86;64.59
23281;BME280;11809;56.390;-3.266;2023-08-21T09:40:41;101121.09;;;19.85;64.71
23281;BME280;11809;56.390;-3.266;2023-08-21T09:43:10;101122.94;;;19.85;64.66
23281;BME280;11809;56.390;-3.266;2023-08-21T09:45:40;101132.75;;;19.84;64.45
23281;BME280;11809;56.390;-3.266;2023-08-21T09:48:08;101141.69;;;19.83;64.68
23281;BME280;11809;56.390;-3.266;2023-08-21T09:50:36;101129.34;;;19.82;64.92
23281;BME280;11809;56.390;-3.266;2023-08-21T09:53:06;101124.97;;;19.81;64.98
23281;BME280;11809;56.390;-3.266;2023-08-21T09:55:35;101116.97;;;19.81;65.02
23281;BME280;11809;56.390;-3.266;2023-08-21T09:58:03;101105.22;;;19.84;65.24
23281;BME280;11809;56.390;-3.266;2023-08-21T10:00:32;101102.22;;;19.88;65.09
23281;BME280;11809;56.390;-3.266;2023-08-21T10:03:02;101096.88;;;19.88;65.24
23281;BME280;11809;56.390;-3.266;2023-08-21T10:05:35;101094.22;;;19.88;65.42
23281;BME280;11809;56.390;-3.266;2023-08-21T10:08:04;101093.47;;;19.86;65.58
23281;BME280;11809;56.390;-3.266;2023-08-21T10:10:34;101091.75;;;19.85;65.92
23281;BME280;11809;56.390;-3.266;2023-08-21T10:13:03;101088.47;;;19.82;66.07
23281;BME280;11809;56.390;-3.266;2023-08-21T10:15:31;101081.34;;;19.82;65.82
23281;BME280;11809;56.390;-3.266;2023-08-21T10:18:18;101082.16;;;19.83;66.08
23281;BME280;11809;56.390;-3.266;2023-08-21T10:20:45;101081.41;;;19.81;66.04
23281;BME280;11809;56.390;-3.266;2023-08-21T10:23:29;101073.41;;;19.81;66.08
23281;BME280;11809;56.390;-3.266;2023-08-21T10:25:57;101061.91;;;19.80;66.38
23281;BME280;11809;56.390;-3.266;2023-08-21T10:28:50;101049.31;;;19.82;65.79
23281;BME280;11809;56.390;-3.266;2023-08-21T10:33:59;101035.00;;;19.83;66.18
23281;BME280;11809;56.390;-3.266;2023-08-21T10:39:20;101041.31;;;19.82;65.79
23281;BME280;11809;56.390;-3.266;2023-08-21T10:42:11;101045.69;;;19.83;66.10
23281;BME280;11809;56.390;-3.266;2023-08-21T10:50:01;101024.56;;;19.80;65.73
23281;BME280;11809;56.390;-3.266;2023-08-21T10:55:01;101026.50;;;19.78;66.06
23281;BME280;11809;56.390;-3.266;2023-08-21T10:57:31;101021.16;;;19.78;66.39
23281;BME280;11809;56.390;-3.266;2023-08-21T11:00:06;101023.09;;;19.76;66.23
23281;BME280;11809;56.390;-3.266;2023-08-21T11:02:42;101017.63;;;19.78;66.41
23281;BME280;11809;56.390;-3.266;2023-08-21T11:05:11;101009.53;;;19.79;66.29
23281;BME280;11809;56.390;-3.266;2023-08-21T11:10:07;101011.22;;;19.80;66.50
23281;BME280;11809;56.390;-3.266;2023-08-21T11:12:39;101004.81;;;19.83;66.10
23281;BME280;11809;56.390;-3.266;2023-08-21T11:15:15;100999.38;;;19.84;66.28
23281;BME280;11809;56.390;-3.266;2023-08-21T11:18:02;101020.72;;;19.84;66.34
23281;BME280;11809;56.390;-3.266;2023-08-21T11:20:34;101019.72;;;19.85;66.30
23281;BME280;11809;56.390;-3.266;2023-08-21T11:23:10;101023.59;;;19.81;66.49
23281;BME280;11809;56.390;-3.266;2023-08-21T11:25:40;101026.16;;;19.83;66.68
23281;BME280;11809;56.390;-3.266;2023-08-21T11:28:08;101031.59;;;19.81;66.64
23281;BME280;11809;56.390;-3.266;2023-08-21T11:30:35;101032.34;;;19.83;66.19
23281;BME280;11809;56.390;-3.266;2023-08-21T11:33:08;101038.66;;;19.82;66.45
23281;BME280;11809;56.390;-3.266;2023-08-21T11:35:40;101033.31;;;19.82;66.52
23281;BME280;11809;56.390;-3.266;2023-08-21T11:38:21;101034.16;;;19.83;66.34
23281;BME280;11809;56.390;-3.266;2023-08-21T11:40:56;101029.66;;;19.83;66.42
23281;BME280;11809;56.390;-3.266;2023-08-21T11:43:41;101026.06;;;19.84;66.57
23281;BME280;11809;56.390;-3.266;2023-08-21T11:46:10;101028.59;;;19.86;66.62
23281;BME280;11809;56.390;-3.266;2023-08-21T11:48:39;101024.97;;;19.87;66.65
23281;BME280;11809;56.390;-3.266;2023-08-21T11:51:07;101031.16;;;19.87;66.63
23281;BME280;11809;56.390;-3.266;2023-08-21T11:53:38;101032.84;;;19.88;66.36
23281;BME280;11809;56.390;-3.266;2023-08-21T11:56:10;101021.22;;;19.89;66.58
23281;BME280;11809;56.390;-3.266;2023-08-21T11:58:44;101013.88;;;19.93;66.69
23281;BME280;11809;56.390;-3.266;2023-08-21T12:01:21;101010.44;;;19.91;66.75
23281;BME280;11809;56.390;-3.266;2023-08-21T12:03:49;101023.34;;;19.97;66.86
23281;BME280;11809;56.390;-3.266;2023-08-21T12:06:23;101021.53;;;19.98;66.77
23281;BME280;11809;56.390;-3.266;2023-08-21T12:08:52;101017.91;;;19.99;66.48
23281;BME280;11809;56.390;-3.266;2023-08-21T12:11:21;101019.59;;;20.00;66.55
23281;BME280;11809;56.390;-3.266;2023-08-21T12:13:48;101012.56;;;19.99;66.70
23281;BME280;11809;56.390;-3.266;2023-08-21T12:16:16;100999.97;;;20.01;66.76
23281;BME280;11809;56.390;-3.266;2023-08-21T12:18:43;101012.31;;;20.02;66.54
23281;BME280;11809;56.390;-3.266;2023-08-21T12:21:10;101007.75;;;20.04;66.32
23281;BME280;11809;56.390;-3.266;2023-08-21T12:23:37;101003.13;;;20.06;66.04
23281;BME280;11809;56.390;-3.266;2023-08-21T12:26:05;100994.91;;;20.09;65.95
23281;BME280;11809;56.390;-3.266;2023-08-21T12:28:32;100992.03;;;20.12;65.89
23281;BME280;11809;56.390;-3.266;2023-08-21T12:30:59;100995.41;;;20.14;65.43
23281;BME280;11809;56.390;-3.266;2023-08-21T12:33:27;100990.09;;;20.14;65.39
23281;BME280;11809;56.390;-3.266;2023-08-21T12:35:54;100984.63;;;20.15;65.25
23281;BME280;11809;56.390;-3.266;2023-08-21T12:38:21;100983.53;;;20.18;64.92
23281;BME280;11809;56.390;-3.266;2023-08-21T12:40:50;100971.91;;;20.19;65.17
23281;BME280;11809;56.390;-3.266;2023-08-21T12:43:17;100985.13;;;20.20;65.12
23281;BME280;11809;56.390;-3.266;2023-08-21T12:45:45;100982.34;;;20.22;64.89
23281;BME280;11809;56.390;-3.266;2023-08-21T12:48:12;100977.88;;;20.22;64.61
23281;BME280;11809;56.390;-3.266;2023-08-21T12:50:39;100983.13;;;20.24;64.57
23281;BME280;11809;56.390;-3.266;2023-08-21T12:53:06;100974.22;;;20.23;64.50
23281;BME280;11809;56.390;-3.266;2023-08-21T12:55:33;100982.75;;;20.28;64.95
23281;BME280;11809;56.390;-3.266;2023-08-21T12:58:01;100985.94;;;20.33;65.02
23281;BME280;11809;56.390;-3.266;2023-08-21T13:00:28;100972.94;;;20.29;64.88
23281;BME280;11809;56.390;-3.266;2023-08-21T13:02:56;100981.69;;;20.31;64.89
23281;BME280;11809;56.390;-3.266;2023-08-21T13:05:24;100981.09;;;20.27;64.97